sensor_id;sensor_type;location;lat;lon;timestamp;temperature;humidity
3578;DHT22;1803;48.494;9.696;2022-09-27T12:19:25;15.20;99.90
3578;DHT22;1803;48.494;9.696;2022-09-27T12:21:53;15.30;99.90
3578;DHT22;1803;48.494;9.696;2022-09-27T12:24:21;15.30;99.90
3578;DHT22;1803;48.494;9.696;2022-09-27T12:26:47;15.00;99.90
3578;DHT22;1803;48.494;9.696;2022-09-27T12:31:43;14.60;99.90
3578;DHT22;1803;48.494;9.696;2022-09-27T12:36:38;14.20;99.90
3578;DHT22;1803;48.494;9.696;2022-09-27T12:41:37;14.30;99.90
3578;DHT22;1803;48.494;9.696;2022-09-27T12:44:03;14.10;99.90
3578;DHT22;1803;48.494;9.696;2022-09-27T12:51:24;13.90;99.90
3578;DHT22;1803;48.494;9.696;2022-09-27T12:59:08;13.80;99.90
3578;DHT22;1803;48.494;9.696;2022-09-27T13:04:24;13.80;99.90
3578;DHT22;1803;48.494;9.696;2022-09-27T13:12:19;13.60;99.90
3578;DHT22;1803;48.494;9.696;2022-09-27T13:22:49;12.60;99.90
3578;DHT22;1803;48.494;9.696;2022-09-27T13:28:00;12.60;99.90
3578;DHT22;1803;48.494;9.696;2022-09-27T13:35:32;12.50;99.90
3578;DHT22;1803;48.494;9.696;2022-09-27T13:37:58;12.30;99.90
3578;DHT22;1803;48.494;9.696;2022-09-27T13:40:25;12.20;99.90
3578;DHT22;1803;48.494;9.696;2022-09-27T13:45:19;12.00;99.90
3578;DHT22;1803;48.494;9.696;2022-09-27T13:47:46;12.20;99.90
3578;DHT22;1803;48.494;9.696;2022-09-27T13:50:19;12.60;99.90
3578;DHT22;1803;48.494;9.696;2022-09-27T13:53:00;12.70;99.90
3578;DHT22;1803;48.494;9.696;2022-09-27T13:55:37;12.70;99.90
3578;DHT22;1803;48.494;9.696;2022-09-27T13:58:14;12.60;99.90
3578;DHT22;1803;48.494;9.696;2022-09-27T14:00:42;12.50;99.90
3578;DHT22;1803;48.494;9.696;2022-09-27T14:08:05;12.20;99.90
3578;DHT22;1803;48.494;9.696;2022-09-27T14:10:31;12.00;99.90
3578;DHT22;1803;48.494;9.696;2022-09-27T14:12:59;11.80;99.90
3578;DHT22;1803;48.494;9.696;2022-09-27T14:15:29;11.70;99.90
3578;DHT22;1803;48.494;9.696;2022-09-27T14:17:55;11.50;99.90
3578;DHT22;1803;48.494;9.696;2022-09-27T14:20:28;11.50;99.90
3578;DHT22;1803;48.494;9.696;2022-09-27T14:22:56;11.20;99.90
3578;DHT22;1803;48.494;9.696;2022-09-27T14:25:22;11.20;99.90
3578;DHT22;1803;48.494;9.696;2022-09-27T14:27:47;11.00;99.90
3578;DHT22;1803;48.494;9.696;2022-09-27T14:30:13;10.80;99.90
3578;DHT22;1803;48.494;9.696;2022-09-27T14:32:45;10.60;99.90
3578;DHT22;1803;48.494;9.696;2022-09-27T14:35:18;10.60;99.90
3578;DHT22;1803;48.494;9.696;2022-09-27T14:38:04;10.70;99.90
3578;DHT22;1803;48.494;9.696;2022-09-27T14:40:31;10.70;99.90
3578;DHT22;1803;48.494;9.696;2022-09-27T14:42:59;10.80;99.90
3578;DHT22;1803;48.494;9.696;2022-09-27T14:45:30;10.90;99.90
3578;DHT22;1803;48.494;9.696;2022-09-27T14:48:00;11.00;99.90
3578;DHT22;1803;48.494;9.696;2022-09-27T14:50:27;11.00;99.90
3578;DHT22;1803;48.494;9.696;2022-09-27T14:52:54;10.90;99.90
3578;DHT22;1803;48.494;9.696;2022-09-27T14:55:25;10.90;99.90
3578;DHT22;1803;48.494;9.696;2022-09-27T14:57:53;10.80;99.90
3578;DHT22;1803;48.494;9.696;2022-09-27T15:00:29;10.80;99.90
3578;DHT22;1803;48.494;9.696;2022-09-27T15:02:57;10.70;99.90
3578;DHT22;1803;48.494;9.696;2022-09-27T15:05:27;10.70;99.90
3578;DHT22;1803;48.494;9.696;2022-09-27T15:07:53;10.70;99.90
3578;DHT22;1803;48.494;9.696;2022-09-27T15:10:24;10.80;99.90
3578;DHT22;1803;48.494;9.696;2022-09-27T15:12:52;10.80;99.90
3578;DHT22;1803;48.494;9.696;2022-09-27T15:15:23;10.60;99.90
3578;DHT22;1803;48.494;9.696;2022-09-27T15:17:49;10.50;99.90
3578;DHT22;1803;48.494;9.696;2022-09-27T15:20:19;10.30;99.90
3578;DHT22;1803;48.494;9.696;2022-09-27T15:22:46;10.30;99.90
3578;DHT22;1803;48.494;9.696;2022-09-27T15:25:16;10.10;99.90
3578;DHT22;1803;48.494;9.696;2022-09-27T15:27:46;10.10;99.90
3578;DHT22;1803;48.494;9.696;2022-09-27T15:30:15;9.90;99.90
3578;DHT22;1803;48.494;9.696;2022-09-27T15:32:46;9.80;99.90
3578;DHT22;1803;48.494;9.696;2022-09-27T15:35:14;9.70;99.90
3578;DHT22;1803;48.494;9.696;2022-09-27T15:37:44;9.80;99.90
3578;DHT22;1803;48.494;9.696;2022-09-27T15:42:58;9.90;99.90
3578;DHT22;1803;48.494;9.696;2022-09-27T15:45:32;9.70;99.90
3578;DHT22;1803;48.494;9.696;2022-09-27T15:48:06;9.70;99.90
3578;DHT22;1803;48.494;9.696;2022-09-27T15:50:37;9.70;99.90
3578;DHT22;1803;48.494;9.696;2022-09-27T15:53:03;9.50;99.90
3578;DHT22;1803;48.494;9.696;2022-09-27T15:55:31;9.50;99.90
3578;DHT22;1803;48.494;9.696;2022-09-27T15:57:58;9.40;99.90
3578;DHT22;1803;48.494;9.696;2022-09-27T16:00:26;9.30;99.90
3578;DHT22;1803;48.494;9.696;2022-09-27T16:02:52;9.20;99.90
3578;DHT22;1803;48.494;9.696;2022-09-27T16:05:18;9.10;99.90
3578;DHT22;1803;48.494;9.696;2022-09-27T16:07:43;9.00;99.90
3578;DHT22;1803;48.494;9.696;2022-09-27T16:10:19;8.80;99.90
3578;DHT22;1803;48.494;9.696;2022-09-27T16:12:45;8.70;99.90
3578;DHT22;1803;48.494;9.696;2022-09-27T16:15:11;8.60;99.90
3578;DHT22;1803;48.494;9.696;2022-09-27T16:17:37;8.50;99.90
3578;DHT22;1803;48.494;9.696;2022-09-27T16:20:04;8.50;99.90
3578;DHT22;1803;48.494;9.696;2022-09-27T16:22:29;8.50;99.90
3578;DHT22;1803;48.494;9.696;2022-09-27T16:24:55;8.50;99.90
3578;DHT22;1803;48.494;9.696;2022-09-27T16:27:24;8.60;99.90
3578;DHT22;1803;48.494;9.696;2022-09-27T16:29:53;8.60;99.90
3578;DHT22;1803;48.494;9.696;2022-09-27T16:32:20;8.60;99.90
3578;DHT22;1803;48.494;9.696;2022-09-27T16:34:45;8.70;99.90
3578;DHT22;1803;48.494;9.696;2022-09-27T16:37:11;8.70;99.90
3578;DHT22;1803;48.494;9.696;2022-09-27T16:39:36;8.60;99.90
3578;DHT22;1803;48.494;9.696;2022-09-27T16:42:03;8.50;99.90
3578;DHT22;1803;48.494;9.696;2022-09-27T16:44:31;8.40;99.90
3578;DHT22;1803;48.494;9.696;2022-09-27T16:47:03;8.30;99.90
3578;DHT22;1803;48.494;9.696;2022-09-27T16:49:29;8.20;99.90
3578;DHT22;1803;48.494;9.696;2022-09-27T16:52:13;8.10;99.90
3578;DHT22;1803;48.494;9.696;2022-09-27T16:54:40;8.00;99.90
3578;DHT22;1803;48.494;9.696;2022-09-27T16:57:06;8.00;99.90
3578;DHT22;1803;48.494;9.696;2022-09-27T16:59:31;8.00;99.90
3578;DHT22;1803;48.494;9.696;2022-09-27T17:01:57;8.00;99.90
3578;DHT22;1803;48.494;9.696;2022-09-27T17:04:26;8.00;99.90
3578;DHT22;1803;48.494;9.696;2022-09-27T17:06:52;8.00;99.90
3578;DHT22;1803;48.494;9.696;2022-09-27T17:09:18;8.00;99.90
3578;DHT22;1803;48.494;9.696;2022-09-27T17:11:43;8.00;99.90
3578;DHT22;1803;48.494;9.696;2022-09-27T17:14:12;8.00;99.90
3578;DHT22;1803;48.494;9.696;2022-09-27T17:16:45;8.00;99.90
3578;DHT22;1803;48.494;9.696;2022-09-27T17:19:11;7.90;99.90
3578;DHT22;1803;48.494;9.696;2022-09-27T17:21:37;8.00;99.90
3578;DHT22;1803;48.494;9.696;2022-09-27T17:24:02;7.90;99.90
3578;DHT22;1803;48.494;9.696;2022-09-27T17:26:29;7.90;99.90
3578;DHT22;1803;48.494;9.696;2022-09-27T17:28:56;7.80;99.90
3578;DHT22;1803;48.494;9.696;2022-09-27T17:31:22;7.80;99.90
